Archival Weather

Kayes/Dag-Dag

Kayes/Dag-Dag, Mali (GAKD)

Report from: Thursday, September 21, 2023 10:00 AM UTC
Current time: Friday, February 23, 2024 7:45 PM UTC

Current weather – Weather history – Daily summaries
Weather forecast

Temperature27.0°C (80.6°F)
Heat index29.3°C (84.8°F)
Dew point22.0°C (71.6°F)
Winds 4 kts (2.1 m/s, 4.6 mph) West-Northwest (300°)
Visibility6.2 mi. (10 km)
Clouds Scattered clouds 2,000 ft. (610 m)
Altimeter29.97 in.Hg (1015 mB)
Relative humidity74 %
Density altitude1,681 ft. (512 m)
Flight conditions Visual Meteorological Conditions
Raw dataGAKD 211000Z 30004KT 9999 SCT020 27/22 Q1015
An error has occurred. This application may no longer respond until reloaded. Reload 🗙